sensor_id;sensor_type;location;lat;lon;timestamp;pressure;altitude;pressure_sealevel;temperature;humidity
36222;BME280;22266;52.340;4.962;2023-01-01T00:01:23;100574.16;;;13.41;68.87
36222;BME280;22266;52.340;4.962;2023-01-01T00:03:54;100586.22;;;13.39;68.89
36222;BME280;22266;52.340;4.962;2023-01-01T00:06:21;100578.69;;;13.41;68.91
36222;BME280;22266;52.340;4.962;2023-01-01T00:08:48;100592.44;;;13.39;69.06
36222;BME280;22266;52.340;4.962;2023-01-01T00:11:35;100595.41;;;13.31;68.67
36222;BME280;22266;52.340;4.962;2023-01-01T00:14:01;100602.47;;;13.32;68.50
36222;BME280;22266;52.340;4.962;2023-01-01T00:16:37;100587.66;;;13.41;68.85
36222;BME280;22266;52.340;4.962;2023-01-01T00:19:03;100592.59;;;13.44;68.90
36222;BME280;22266;52.340;4.962;2023-01-01T00:21:30;100588.09;;;13.38;68.42
36222;BME280;22266;52.340;4.962;2023-01-01T00:23:56;100595.78;;;13.41;68.68
36222;BME280;22266;52.340;4.962;2023-01-01T00:26:23;100587.66;;;13.41;68.40
36222;BME280;22266;52.340;4.962;2023-01-01T00:28:53;100585.38;;;13.38;68.31
36222;BME280;22266;52.340;4.962;2023-01-01T00:31:21;100589.75;;;13.39;68.72
36222;BME280;22266;52.340;4.962;2023-01-01T00:33:52;100584.50;;;13.44;68.75
36222;BME280;22266;52.340;4.962;2023-01-01T00:36:21;100597.34;;;13.49;68.71
36222;BME280;22266;52.340;4.962;2023-01-01T00:38:48;100591.13;;;13.48;68.67
36222;BME280;22266;52.340;4.962;2023-01-01T00:41:15;100587.16;;;13.51;68.73
36222;BME280;22266;52.340;4.962;2023-01-01T00:43:42;100568.94;;;13.40;69.22
36222;BME280;22266;52.340;4.962;2023-01-01T00:46:09;100570.66;;;13.34;68.82
36222;BME280;22266;52.340;4.962;2023-01-01T00:48:36;100574.19;;;13.34;68.74
36222;BME280;22266;52.340;4.962;2023-01-01T00:51:04;100580.84;;;13.32;68.66
36222;BME280;22266;52.340;4.962;2023-01-01T00:53:30;100575.66;;;13.30;68.86
36222;BME280;22266;52.340;4.962;2023-01-01T00:55:57;100583.13;;;13.35;68.70
36222;BME280;22266;52.340;4.962;2023-01-01T00:58:24;100575.41;;;13.39;68.97
36222;BME280;22266;52.340;4.962;2023-01-01T01:00:51;100566.63;;;13.43;69.07
36222;BME280;22266;52.340;4.962;2023-01-01T01:03:18;100584.75;;;13.36;69.64
36222;BME280;22266;52.340;4.962;2023-01-01T01:08:32;100589.78;;;13.32;69.99
36222;BME280;22266;52.340;4.962;2023-01-01T01:13:35;100584.16;;;13.34;70.42
36222;BME280;22266;52.340;4.962;2023-01-01T01:16:11;100619.34;;;13.27;70.92
36222;BME280;22266;52.340;4.962;2023-01-01T01:18:38;100618.75;;;13.25;70.79
36222;BME280;22266;52.340;4.962;2023-01-01T01:21:05;100637.22;;;13.28;70.90
36222;BME280;22266;52.340;4.962;2023-01-01T01:23:33;100622.88;;;13.28;70.89
36222;BME280;22266;52.340;4.962;2023-01-01T01:26:15;100632.25;;;13.25;70.63
36222;BME280;22266;52.340;4.962;2023-01-01T01:28:42;100616.03;;;13.19;70.08
36222;BME280;22266;52.340;4.962;2023-01-01T01:31:16;100599.38;;;13.28;69.78
36222;BME280;22266;52.340;4.962;2023-01-01T01:33:43;100599.41;;;13.22;69.28
36222;BME280;22266;52.340;4.962;2023-01-01T01:36:10;100592.31;;;13.27;68.78
36222;BME280;22266;52.340;4.962;2023-01-01T01:38:37;100599.41;;;13.22;68.91
36222;BME280;22266;52.340;4.962;2023-01-01T01:41:03;100603.09;;;13.34;68.75
36222;BME280;22266;52.340;4.962;2023-01-01T01:46:03;100626.19;;;13.30;68.61
36222;BME280;22266;52.340;4.962;2023-01-01T01:48:37;100623.50;;;13.30;68.32
36222;BME280;22266;52.340;4.962;2023-01-01T01:51:04;100618.53;;;13.20;68.26
36222;BME280;22266;52.340;4.962;2023-01-01T01:53:34;100629.97;;;13.29;68.04
36222;BME280;22266;52.340;4.962;2023-01-01T01:56:08;100622.47;;;13.24;68.16
36222;BME280;22266;52.340;4.962;2023-01-01T01:58:36;100623.09;;;13.20;68.20
36222;BME280;22266;52.340;4.962;2023-01-01T02:01:02;100622.91;;;13.21;68.22
36222;BME280;22266;52.340;4.962;2023-01-01T02:03:39;100628.50;;;13.26;67.88
36222;BME280;22266;52.340;4.962;2023-01-01T02:06:09;100646.38;;;13.27;67.92
36222;BME280;22266;52.340;4.962;2023-01-01T02:08:36;100639.72;;;13.30;68.05
36222;BME280;22266;52.340;4.962;2023-01-01T02:11:03;100633.03;;;13.32;68.29
36222;BME280;22266;52.340;4.962;2023-01-01T02:13:30;100632.66;;;13.29;68.32
36222;BME280;22266;52.340;4.962;2023-01-01T02:18:37;100628.22;;;13.41;68.36
36222;BME280;22266;52.340;4.962;2023-01-01T02:21:13;100626.75;;;13.39;68.05
36222;BME280;22266;52.340;4.962;2023-01-01T02:26:47;100646.34;;;13.34;68.23
36222;BME280;22266;52.340;4.962;2023-01-01T02:32:14;100641.53;;;13.36;68.12
36222;BME280;22266;52.340;4.962;2023-01-01T02:34:55;100638.97;;;13.48;68.11
36222;BME280;22266;52.340;4.962;2023-01-01T02:37:25;100649.78;;;13.48;68.21
36222;BME280;22266;52.340;4.962;2023-01-01T02:39:56;100648.41;;;13.39;68.01
36222;BME280;22266;52.340;4.962;2023-01-01T02:42:27;100660.88;;;13.40;68.02
36222;BME280;22266;52.340;4.962;2023-01-01T02:44:56;100670.84;;;13.39;67.75
36222;BME280;22266;52.340;4.962;2023-01-01T02:47:24;100664.78;;;13.44;67.79
36222;BME280;22266;52.340;4.962;2023-01-01T02:50:02;100666.50;;;13.38;67.75
36222;BME280;22266;52.340;4.962;2023-01-01T02:52:58;100663.31;;;13.48;67.77
36222;BME280;22266;52.340;4.962;2023-01-01T02:58:21;100667.50;;;13.44;67.07
36222;BME280;22266;52.340;4.962;2023-01-01T03:01:24;100672.09;;;13.36;67.63
36222;BME280;22266;52.340;4.962;2023-01-01T03:06:51;100670.19;;;13.44;67.25
36222;BME280;22266;52.340;4.962;2023-01-01T03:09:42;100670.19;;;13.44;66.99
36222;BME280;22266;52.340;4.962;2023-01-01T03:12:24;100669.53;;;13.48;67.07
36222;BME280;22266;52.340;4.962;2023-01-01T03:20:26;100674.13;;;13.48;67.01
36222;BME280;22266;52.340;4.962;2023-01-01T03:22:59;100676.41;;;13.51;67.08
36222;BME280;22266;52.340;4.962;2023-01-01T03:25:31;100678.44;;;13.55;67.00
36222;BME280;22266;52.340;4.962;2023-01-01T03:28:02;100673.06;;;13.49;67.10
36222;BME280;22266;52.340;4.962;2023-01-01T03:30:32;100680.34;;;13.48;67.51
36222;BME280;22266;52.340;4.962;2023-01-01T03:33:05;100677.66;;;13.48;67.91
36222;BME280;22266;52.340;4.962;2023-01-01T03:35:46;100713.28;;;13.39;68.10
36222;BME280;22266;52.340;4.962;2023-01-01T03:38:20;100725.81;;;13.33;67.87
36222;BME280;22266;52.340;4.962;2023-01-01T03:40:50;100705.03;;;13.27;67.85
36222;BME280;22266;52.340;4.962;2023-01-01T03:46:20;100720.63;;;13.18;68.42
36222;BME280;22266;52.340;4.962;2023-01-01T03:48:48;100711.69;;;13.24;68.56
36222;BME280;22266;52.340;4.962;2023-01-01T03:54:26;100713.34;;;13.25;68.78
36222;BME280;22266;52.340;4.962;2023-01-01T03:57:23;100738.72;;;13.24;68.71
36222;BME280;22266;52.340;4.962;2023-01-01T04:00:00;100760.34;;;13.24;69.13
36222;BME280;22266;52.340;4.962;2023-01-01T04:03:08;100762.81;;;13.19;68.75
36222;BME280;22266;52.340;4.962;2023-01-01T04:05:35;100757.84;;;13.16;68.80
36222;BME280;22266;52.340;4.962;2023-01-01T04:08:03;100751.19;;;13.12;69.04
36222;BME280;22266;52.340;4.962;2023-01-01T04:10:32;100755.38;;;13.08;69.04
36222;BME280;22266;52.340;4.962;2023-01-01T04:13:02;100769.94;;;13.07;69.18
36222;BME280;22266;52.340;4.962;2023-01-01T04:15:30;100760.16;;;13.06;69.23
36222;BME280;22266;52.340;4.962;2023-01-01T04:17:58;100765.56;;;13.06;68.86
36222;BME280;22266;52.340;4.962;2023-01-01T04:20:25;100768.28;;;13.06;69.11
36222;BME280;22266;52.340;4.962;2023-01-01T04:22:56;100778.69;;;12.96;68.16
36222;BME280;22266;52.340;4.962;2023-01-01T04:25:22;100777.44;;;12.92;68.17
36222;BME280;22266;52.340;4.962;2023-01-01T04:27:49;100777.47;;;12.85;67.98
36222;BME280;22266;52.340;4.962;2023-01-01T04:30:15;100786.41;;;12.79;67.73
36222;BME280;22266;52.340;4.962;2023-01-01T04:32:42;100811.53;;;12.79;67.96
36222;BME280;22266;52.340;4.962;2023-01-01T04:35:10;100802.66;;;12.72;68.27
36222;BME280;22266;52.340;4.962;2023-01-01T04:37:41;100804.28;;;12.67;68.11
36222;BME280;22266;52.340;4.962;2023-01-01T04:40:09;100804.50;;;12.65;68.09
36222;BME280;22266;52.340;4.962;2023-01-01T04:42:36;100821.97;;;12.56;68.33
36222;BME280;22266;52.340;4.962;2023-01-01T04:45:03;100830.47;;;12.59;68.53
36222;BME280;22266;52.340;4.962;2023-01-01T04:47:30;100835.66;;;12.61;68.33
36222;BME280;22266;52.340;4.962;2023-01-01T04:49:56;100840.22;;;12.67;68.57
36222;BME280;22266;52.340;4.962;2023-01-01T04:52:23;100841.28;;;12.66;68.38
36222;BME280;22266;52.340;4.962;2023-01-01T04:54:49;100826.13;;;12.65;68.40
36222;BME280;22266;52.340;4.962;2023-01-01T04:57:15;100843.78;;;12.61;68.46
36222;BME280;22266;52.340;4.962;2023-01-01T04:59:42;100844.81;;;12.67;68.30
36222;BME280;22266;52.340;4.962;2023-01-01T05:02:09;100850.00;;;12.61;68.34
36222;BME280;22266;52.340;4.962;2023-01-01T05:04:35;100843.34;;;12.57;68.29
36222;BME280;22266;52.340;4.962;2023-01-01T05:07:02;100847.28;;;12.55;68.15
36222;BME280;22266;52.340;4.962;2023-01-01T05:09:28;100825.06;;;12.53;67.70
36222;BME280;22266;52.340;4.962;2023-01-01T05:11:54;100837.75;;;12.52;67.73
36222;BME280;22266;52.340;4.962;2023-01-01T05:14:21;100859.53;;;12.51;67.72
36222;BME280;22266;52.340;4.962;2023-01-01T05:16:47;100890.06;;;12.51;67.41
36222;BME280;22266;52.340;4.962;2023-01-01T05:19:14;100870.78;;;12.48;67.34
36222;BME280;22266;52.340;4.962;2023-01-01T05:21:40;100874.50;;;12.47;67.60
36222;BME280;22266;52.340;4.962;2023-01-01T05:24:08;100858.94;;;12.49;67.84
36222;BME280;22266;52.340;4.962;2023-01-01T05:26:39;100866.38;;;12.47;68.38
36222;BME280;22266;52.340;4.962;2023-01-01T05:29:06;100879.88;;;12.47;68.61
36222;BME280;22266;52.340;4.962;2023-01-01T05:31:41;100874.28;;;12.55;69.01
36222;BME280;22266;52.340;4.962;2023-01-01T05:34:07;100870.16;;;12.52;68.95
36222;BME280;22266;52.340;4.962;2023-01-01T05:36:35;100875.75;;;12.44;69.28
36222;BME280;22266;52.340;4.962;2023-01-01T05:39:08;100873.88;;;12.45;69.66
36222;BME280;22266;52.340;4.962;2023-01-01T05:41:35;100877.78;;;12.35;69.79
36222;BME280;22266;52.340;4.962;2023-01-01T05:44:04;100889.66;;;12.41;69.77
36222;BME280;22266;52.340;4.962;2023-01-01T05:46:31;100907.31;;;12.44;69.56
36222;BME280;22266;52.340;4.962;2023-01-01T05:48:58;100906.25;;;12.38;69.67
36222;BME280;22266;52.340;4.962;2023-01-01T05:51:26;100911.25;;;12.41;69.72
36222;BME280;22266;52.340;4.962;2023-01-01T05:53:54;100909.97;;;12.30;69.60
36222;BME280;22266;52.340;4.962;2023-01-01T05:56:21;100936.53;;;12.27;69.93
36222;BME280;22266;52.340;4.962;2023-01-01T05:58:48;100938.84;;;12.30;69.91
36222;BME280;22266;52.340;4.962;2023-01-01T06:01:23;100933.88;;;12.33;69.48
36222;BME280;22266;52.340;4.962;2023-01-01T06:03:51;100934.66;;;12.27;69.39
36222;BME280;22266;52.340;4.962;2023-01-01T06:06:20;100942.09;;;12.19;69.34
36222;BME280;22266;52.340;4.962;2023-01-01T06:08:52;100952.28;;;12.23;69.50
36222;BME280;22266;52.340;4.962;2023-01-01T06:11:19;100958.13;;;12.20;69.62
36222;BME280;22266;52.340;4.962;2023-01-01T06:13:46;100943.75;;;12.13;69.56
36222;BME280;22266;52.340;4.962;2023-01-01T06:16:13;100953.13;;;12.17;69.10
36222;BME280;22266;52.340;4.962;2023-01-01T06:18:40;100959.78;;;12.21;69.37
36222;BME280;22266;52.340;4.962;2023-01-01T06:21:09;100958.91;;;12.14;69.31
36222;BME280;22266;52.340;4.962;2023-01-01T06:23:36;100971.19;;;12.23;69.56
36222;BME280;22266;52.340;4.962;2023-01-01T06:26:10;100965.78;;;12.23;69.19
36222;BME280;22266;52.340;4.962;2023-01-01T06:28:37;100971.78;;;12.19;69.16
36222;BME280;22266;52.340;4.962;2023-01-01T06:31:05;100971.38;;;12.15;69.43
36222;BME280;22266;52.340;4.962;2023-01-01T06:33:32;100968.03;;;12.13;69.44
36222;BME280;22266;52.340;4.962;2023-01-01T06:36:01;100969.91;;;12.12;69.65
36222;BME280;22266;52.340;4.962;2023-01-01T06:38:35;100976.75;;;12.15;69.66
36222;BME280;22266;52.340;4.962;2023-01-01T06:41:08;100972.41;;;12.14;69.82
36222;BME280;22266;52.340;4.962;2023-01-01T06:43:35;100973.44;;;12.13;69.95
36222;BME280;22266;52.340;4.962;2023-01-01T06:46:13;100984.28;;;12.20;69.99
36222;BME280;22266;52.340;4.962;2023-01-01T06:48:40;100996.72;;;12.21;70.28
36222;BME280;22266;52.340;4.962;2023-01-01T06:51:12;101000.03;;;12.16;70.46
36222;BME280;22266;52.340;4.962;2023-01-01T06:53:39;101013.53;;;12.16;70.53
36222;BME280;22266;52.340;4.962;2023-01-01T06:56:06;101011.22;;;12.13;70.61
36222;BME280;22266;52.340;4.962;2023-01-01T06:58:33;101010.13;;;12.01;70.97
36222;BME280;22266;52.340;4.962;2023-01-01T07:01:08;101021.97;;;12.06;71.23
36222;BME280;22266;52.340;4.962;2023-01-01T07:03:36;101029.69;;;12.09;70.56
36222;BME280;22266;52.340;4.962;2023-01-01T07:06:04;101049.59;;;12.08;71.22
36222;BME280;22266;52.340;4.962;2023-01-01T07:08:31;101056.06;;;12.14;71.17
36222;BME280;22266;52.340;4.962;2023-01-01T07:10:58;101043.59;;;12.13;71.52
36222;BME280;22266;52.340;4.962;2023-01-01T07:13:25;101058.75;;;12.14;71.24
36222;BME280;22266;52.340;4.962;2023-01-01T07:15:53;101061.38;;;12.01;71.48
36222;BME280;22266;52.340;4.962;2023-01-01T07:18:20;101068.25;;;12.03;71.45
36222;BME280;22266;52.340;4.962;2023-01-01T07:20:50;101062.44;;;12.00;71.25
36222;BME280;22266;52.340;4.962;2023-01-01T07:23:18;101057.19;;;11.92;71.29
36222;BME280;22266;52.340;4.962;2023-01-01T07:25:44;101062.38;;;11.93;71.55
36222;BME280;22266;52.340;4.962;2023-01-01T07:28:11;101079.00;;;11.97;71.51
36222;BME280;22266;52.340;4.962;2023-01-01T07:30:38;101079.78;;;11.91;71.49
36222;BME280;22266;52.340;4.962;2023-01-01T07:33:04;101088.06;;;11.89;71.30
36222;BME280;22266;52.340;4.962;2023-01-01T07:35:31;101086.25;;;11.96;71.43
36222;BME280;22266;52.340;4.962;2023-01-01T07:37:57;101098.88;;;11.89;71.60
36222;BME280;22266;52.340;4.962;2023-01-01T07:40:24;101126.88;;;11.88;71.54
36222;BME280;22266;52.340;4.962;2023-01-01T07:42:50;101112.34;;;11.89;71.63
36222;BME280;22266;52.340;4.962;2023-01-01T07:45:17;101120.91;;;11.93;71.59
36222;BME280;22266;52.340;4.962;2023-01-01T07:47:48;101145.88;;;11.80;71.47
36222;BME280;22266;52.340;4.962;2023-01-01T07:50:16;101158.31;;;11.81;71.32
36222;BME280;22266;52.340;4.962;2023-01-01T07:52:43;101166.50;;;11.87;71.31
36222;BME280;22266;52.340;4.962;2023-01-01T07:55:14;101159.97;;;11.82;71.39
36222;BME280;22266;52.340;4.962;2023-01-01T07:57:41;101176.66;;;11.85;71.23
36222;BME280;22266;52.340;4.962;2023-01-01T08:00:10;101173.03;;;11.78;71.50
36222;BME280;22266;52.340;4.962;2023-01-01T08:02:42;101170.97;;;11.80;70.99
36222;BME280;22266;52.340;4.962;2023-01-01T08:05:09;101180.47;;;11.76;70.89
36222;BME280;22266;52.340;4.962;2023-01-01T08:07:36;101185.22;;;11.74;71.20
36222;BME280;22266;52.340;4.962;2023-01-01T08:10:04;101198.84;;;11.66;70.91
36222;BME280;22266;52.340;4.962;2023-01-01T08:12:31;101195.97;;;11.68;70.75
36222;BME280;22266;52.340;4.962;2023-01-01T08:14:57;101184.97;;;11.69;70.77
36222;BME280;22266;52.340;4.962;2023-01-01T08:17:24;101197.63;;;11.69;70.59
36222;BME280;22266;52.340;4.962;2023-01-01T08:19:50;101187.66;;;11.69;70.44
36222;BME280;22266;52.340;4.962;2023-01-01T08:22:17;101182.66;;;11.66;70.35
36222;BME280;22266;52.340;4.962;2023-01-01T08:24:44;101200.53;;;11.67;70.09
36222;BME280;22266;52.340;4.962;2023-01-01T08:27:14;101202.44;;;11.73;70.31
36222;BME280;22266;52.340;4.962;2023-01-01T08:29:42;101201.59;;;11.73;69.82
36222;BME280;22266;52.340;4.962;2023-01-01T08:32:09;101203.47;;;11.72;69.89
36222;BME280;22266;52.340;4.962;2023-01-01T08:34:36;101205.97;;;11.74;69.80
36222;BME280;22266;52.340;4.962;2023-01-01T08:37:03;101200.25;;;11.62;69.54
36222;BME280;22266;52.340;4.962;2023-01-01T08:39:29;101199.66;;;11.67;69.54
36222;BME280;22266;52.340;4.962;2023-01-01T08:41:56;101206.75;;;11.68;69.60
36222;BME280;22266;52.340;4.962;2023-01-01T08:44:22;101205.72;;;11.69;69.52
36222;BME280;22266;52.340;4.962;2023-01-01T08:46:51;101226.91;;;11.72;69.59
36222;BME280;22266;52.340;4.962;2023-01-01T08:49:18;101222.16;;;11.74;69.58
36222;BME280;22266;52.340;4.962;2023-01-01T08:51:44;101220.88;;;11.70;69.43
36222;BME280;22266;52.340;4.962;2023-01-01T08:54:11;101220.03;;;11.69;69.55
36222;BME280;22266;52.340;4.962;2023-01-01T08:56:37;101222.34;;;11.72;69.52
36222;BME280;22266;52.340;4.962;2023-01-01T08:59:03;101228.78;;;11.71;69.12
36222;BME280;22266;52.340;4.962;2023-01-01T09:01:31;101228.00;;;11.77;69.32
36222;BME280;22266;52.340;4.962;2023-01-01T09:03:58;101229.03;;;11.76;69.17
36222;BME280;22266;52.340;4.962;2023-01-01T09:06:24;101234.69;;;11.81;69.12
36222;BME280;22266;52.340;4.962;2023-01-01T09:08:51;101232.66;;;11.83;68.78
36222;BME280;22266;52.340;4.962;2023-01-01T09:11:22;101226.47;;;11.90;69.19
36222;BME280;22266;52.340;4.962;2023-01-01T09:13:49;101242.03;;;11.87;69.26
36222;BME280;22266;52.340;4.962;2023-01-01T09:16:15;101233.13;;;11.87;68.89
36222;BME280;22266;52.340;4.962;2023-01-01T09:18:42;101221.19;;;11.81;69.35
36222;BME280;22266;52.340;4.962;2023-01-01T09:21:08;101233.94;;;11.87;69.13
36222;BME280;22266;52.340;4.962;2023-01-01T09:23:34;101238.31;;;11.88;69.12
36222;BME280;22266;52.340;4.962;2023-01-01T09:26:03;101238.41;;;11.80;68.86
36222;BME280;22266;52.340;4.962;2023-01-01T09:28:30;101242.63;;;11.83;68.93
36222;BME280;22266;52.340;4.962;2023-01-01T09:30:56;101245.56;;;11.88;68.90
36222;BME280;22266;52.340;4.962;2023-01-01T09:33:23;101254.16;;;11.98;68.80
36222;BME280;22266;52.340;4.962;2023-01-01T09:35:49;101263.50;;;11.96;68.43
36222;BME280;22266;52.340;4.962;2023-01-01T09:38:16;101263.94;;;11.99;68.60
36222;BME280;22266;52.340;4.962;2023-01-01T09:41:05;101256.09;;;12.04;68.78
36222;BME280;22266;52.340;4.962;2023-01-01T09:43:53;101261.81;;;11.95;68.68
36222;BME280;22266;52.340;4.962;2023-01-01T09:46:24;101256.41;;;11.95;68.56
36222;BME280;22266;52.340;4.962;2023-01-01T09:49:01;101273.25;;;11.97;68.73
36222;BME280;22266;52.340;4.962;2023-01-01T09:51:33;101286.50;;;11.92;68.71
36222;BME280;22266;52.340;4.962;2023-01-01T09:54:29;101303.13;;;11.95;68.94
36222;BME280;22266;52.340;4.962;2023-01-01T09:57:00;101282.97;;;11.91;68.90
36222;BME280;22266;52.340;4.962;2023-01-01T09:59:27;101292.63;;;11.85;68.92
36222;BME280;22266;52.340;4.962;2023-01-01T10:05:01;101307.94;;;12.00;68.78
36222;BME280;22266;52.340;4.962;2023-01-01T10:07:54;101317.97;;;12.06;68.75
36222;BME280;22266;52.340;4.962;2023-01-01T10:10:38;101308.00;;;12.06;68.78
36222;BME280;22266;52.340;4.962;2023-01-01T10:15:58;101308.81;;;12.07;68.47
36222;BME280;22266;52.340;4.962;2023-01-01T10:18:31;101303.31;;;12.15;68.58
36222;BME280;22266;52.340;4.962;2023-01-01T10:23:34;101301.47;;;12.16;68.61
36222;BME280;22266;52.340;4.962;2023-01-01T10:26:10;101294.81;;;12.18;68.92
36222;BME280;22266;52.340;4.962;2023-01-01T10:28:45;101296.06;;;12.16;68.66
36222;BME280;22266;52.340;4.962;2023-01-01T10:33:42;101281.72;;;12.15;68.72
36222;BME280;22266;52.340;4.962;2023-01-01T10:36:14;101286.34;;;12.21;68.97
36222;BME280;22266;52.340;4.962;2023-01-01T10:38:43;101278.88;;;12.23;68.80
36222;BME280;22266;52.340;4.962;2023-01-01T10:41:11;101277.28;;;12.29;68.93
36222;BME280;22266;52.340;4.962;2023-01-01T10:43:45;101268.22;;;12.36;68.61
36222;BME280;22266;52.340;4.962;2023-01-01T10:46:16;101279.63;;;12.38;68.30
36222;BME280;22266;52.340;4.962;2023-01-01T10:49:06;101292.38;;;12.45;68.33
36222;BME280;22266;52.340;4.962;2023-01-01T10:51:37;101289.53;;;12.53;68.12
36222;BME280;22266;52.340;4.962;2023-01-01T10:56:57;101310.28;;;12.52;67.86
36222;BME280;22266;52.340;4.962;2023-01-01T10:59:36;101322.09;;;12.51;67.50
36222;BME280;22266;52.340;4.962;2023-01-01T11:02:23;101312.34;;;12.50;67.50
36222;BME280;22266;52.340;4.962;2023-01-01T11:04:52;101313.13;;;12.44;67.21
36222;BME280;22266;52.340;4.962;2023-01-01T11:07:41;101308.81;;;12.50;67.40
36222;BME280;22266;52.340;4.962;2023-01-01T11:10:20;101308.56;;;12.45;67.54
36222;BME280;22266;52.340;4.962;2023-01-01T11:12:47;101326.88;;;12.49;67.52
36222;BME280;22266;52.340;4.962;2023-01-01T11:15:39;101327.78;;;12.56;67.83
36222;BME280;22266;52.340;4.962;2023-01-01T11:18:15;101333.41;;;12.61;67.84
36222;BME280;22266;52.340;4.962;2023-01-01T11:20:50;101336.06;;;12.55;68.08
36222;BME280;22266;52.340;4.962;2023-01-01T11:23:29;101328.78;;;12.55;68.32
36222;BME280;22266;52.340;4.962;2023-01-01T11:28:32;101341.75;;;12.67;68.35
36222;BME280;22266;52.340;4.962;2023-01-01T11:31:15;101351.50;;;12.61;69.10
36222;BME280;22266;52.340;4.962;2023-01-01T11:33:49;101337.16;;;12.60;69.28
36222;BME280;22266;52.340;4.962;2023-01-01T11:36:37;101336.50;;;12.58;69.13
36222;BME280;22266;52.340;4.962;2023-01-01T11:39:22;101347.50;;;12.57;69.30
36222;BME280;22266;52.340;4.962;2023-01-01T11:41:56;101338.13;;;12.53;69.43
36222;BME280;22266;52.340;4.962;2023-01-01T11:46:58;101317.13;;;12.48;69.92
36222;BME280;22266;52.340;4.962;2023-01-01T11:49:27;101333.56;;;12.53;69.76
36222;BME280;22266;52.340;4.962;2023-01-01T11:51:56;101344.16;;;12.55;70.01
36222;BME280;22266;52.340;4.962;2023-01-01T11:54:29;101338.13;;;12.53;69.74
36222;BME280;22266;52.340;4.962;2023-01-01T11:57:08;101349.25;;;12.43;69.91
36222;BME280;22266;52.340;4.962;2023-01-01T11:59:44;101345.13;;;12.47;69.69
36222;BME280;22266;52.340;4.962;2023-01-01T12:02:17;101348.84;;;12.46;69.74
36222;BME280;22266;52.340;4.962;2023-01-01T12:04:51;101341.28;;;12.35;70.33
36222;BME280;22266;52.340;4.962;2023-01-01T12:07:23;101345.22;;;12.32;70.43
36222;BME280;22266;52.340;4.962;2023-01-01T12:10:00;101346.50;;;12.36;70.44
36222;BME280;22266;52.340;4.962;2023-01-01T12:12:35;101362.88;;;12.35;70.38
36222;BME280;22266;52.340;4.962;2023-01-01T12:15:14;101352.72;;;12.37;70.35
36222;BME280;22266;52.340;4.962;2023-01-01T12:18:05;101355.22;;;12.38;70.35
36222;BME280;22266;52.340;4.962;2023-01-01T12:23:18;101337.16;;;12.39;70.63
36222;BME280;22266;52.340;4.962;2023-01-01T12:25:51;101342.38;;;12.41;70.81
36222;BME280;22266;52.340;4.962;2023-01-01T12:28:38;101336.84;;;12.27;70.84
36222;BME280;22266;52.340;4.962;2023-01-01T12:31:21;101337.94;;;12.33;71.18
36222;BME280;22266;52.340;4.962;2023-01-01T12:34:05;101334.88;;;12.36;71.27
36222;BME280;22266;52.340;4.962;2023-01-01T12:44:58;101327.91;;;12.27;71.43
36222;BME280;22266;52.340;4.962;2023-01-01T12:50:33;101349.78;;;12.32;71.47
36222;BME280;22266;52.340;4.962;2023-01-01T12:55:58;101353.03;;;12.27;71.86
36222;BME280;22266;52.340;4.962;2023-01-01T12:58:35;101365.13;;;12.31;71.88
36222;BME280;22266;52.340;4.962;2023-01-01T13:01:14;101355.56;;;12.29;71.74
36222;BME280;22266;52.340;4.962;2023-01-01T13:03:46;101359.28;;;12.28;71.96
36222;BME280;22266;52.340;4.962;2023-01-01T13:06:17;101358.88;;;12.31;71.52
36222;BME280;22266;52.340;4.962;2023-01-01T13:08:56;101350.78;;;12.31;71.48
36222;BME280;22266;52.340;4.962;2023-01-01T13:11:25;101350.78;;;12.31;71.74
36222;BME280;22266;52.340;4.962;2023-01-01T13:13:53;101347.25;;;12.30;71.79
36222;BME280;22266;52.340;4.962;2023-01-01T13:16:35;101338.34;;;12.30;71.26
36222;BME280;22266;52.340;4.962;2023-01-01T13:19:03;101347.63;;;12.27;71.41
36222;BME280;22266;52.340;4.962;2023-01-01T13:21:30;101355.09;;;12.25;71.20
36222;BME280;22266;52.340;4.962;2023-01-01T13:24:02;101357.22;;;12.30;71.31
36222;BME280;22266;52.340;4.962;2023-01-01T13:26:32;101354.72;;;12.28;71.09
36222;BME280;22266;52.340;4.962;2023-01-01T13:45:34;101333.13;;;12.28;70.42
36222;BME280;22266;52.340;4.962;2023-01-01T13:48:36;101333.13;;;12.28;70.58
36222;BME280;22266;52.340;4.962;2023-01-01T14:00:24;101354.91;;;12.27;70.14
36222;BME280;22266;52.340;4.962;2023-01-01T14:02:59;101360.84;;;12.16;70.46
36222;BME280;22266;52.340;4.962;2023-01-01T14:05:37;101356.06;;;12.18;70.38
36222;BME280;22266;52.340;4.962;2023-01-01T14:08:35;101361.91;;;12.21;70.36
36222;BME280;22266;52.340;4.962;2023-01-01T14:11:19;101367.56;;;12.26;70.29
36222;BME280;22266;52.340;4.962;2023-01-01T14:13:46;101368.22;;;12.28;70.30
36222;BME280;22266;52.340;4.962;2023-01-01T14:16:12;101367.19;;;12.29;70.36
36222;BME280;22266;52.340;4.962;2023-01-01T14:18:44;101359.09;;;12.29;70.13
36222;BME280;22266;52.340;4.962;2023-01-01T14:21:14;101351.00;;;12.29;69.98
36222;BME280;22266;52.340;4.962;2023-01-01T14:23:43;101345.72;;;12.21;70.19
36222;BME280;22266;52.340;4.962;2023-01-01T14:26:13;101347.13;;;12.17;70.46
36222;BME280;22266;52.340;4.962;2023-01-01T14:28:40;101343.03;;;12.21;70.56
36222;BME280;22266;52.340;4.962;2023-01-01T14:31:19;101356.53;;;12.21;70.68
36222;BME280;22266;52.340;4.962;2023-01-01T14:33:47;101353.00;;;12.21;70.68
36222;BME280;22266;52.340;4.962;2023-01-01T14:36:19;101344.53;;;12.24;70.77
36222;BME280;22266;52.340;4.962;2023-01-01T14:38:48;101343.84;;;12.22;70.82
36222;BME280;22266;52.340;4.962;2023-01-01T14:41:21;101343.22;;;12.20;70.94
36222;BME280;22266;52.340;4.962;2023-01-01T14:43:51;101340.97;;;12.23;71.22
36222;BME280;22266;52.340;4.962;2023-01-01T14:46:22;101342.44;;;12.26;71.22